Terminal Aerodrome Forecast
Issued by NWS

Home | Current Version | Previous Version | Text Only | Print | Product List | Glossary On
Versions: 1 2 3 4 5 6 7 8 9 10 11 12 13 14 15 16 17 18 19 20 21
000
FTUS44 KHGX 272330
TAFLBX
TAF
KLBX 272330Z 2800/2824 VRB06KT P6SM SKC
     FM280200 15011KT P6SM SCT015
     FM280400 17012KT P6SM SCT007 OVC012
     FM281500 17015G25KT P6SM BKN020=

USA.gov is the U.S. government's official web portal to all federal, state and local government web resources and services.